Marathon, Ohio
Current Conditions -  °F | °C
As of 7:54 PM on Sunday 21 Dec 2014 (Local Time) from KILN Reporting Station
Clear Clear  
Wind Chill: 21°   Ceiling: Unl
Heat Index: 28°   Visibility: 7mi
Dew Point: 24°   Wind: 7mph
Humidity: 85%   Direction: 100°E
Pressure: 30.15"   Gusts: NA
Location:  39.14°N, 84.01°W
Report Text: KILN 220054Z AUTO 10006KT 7SM CLR M02/M04 A3015 RMK AO2 SLP243 T10221044
Loading
Personal Weather Stations






























Interactive Weather Map New forecast layout! Learn more

10-Day Weather Forecast

Advertisements
Track Severe Weather on mobile